sensor_id;sensor_type;location;lat;lon;timestamp;temperature;humidity
25410;DHT22;13339;50.840;4.346;2023-11-19T00:00:17;16.10;99.90
25410;DHT22;13339;50.840;4.346;2023-11-19T00:02:43;16.10;99.90
25410;DHT22;13339;50.840;4.346;2023-11-19T00:05:09;16.10;99.90
25410;DHT22;13339;50.840;4.346;2023-11-19T00:07:37;16.10;99.90
25410;DHT22;13339;50.840;4.346;2023-11-19T00:10:09;16.10;99.90
25410;DHT22;13339;50.840;4.346;2023-11-19T00:12:41;16.10;99.90
25410;DHT22;13339;50.840;4.346;2023-11-19T00:15:07;16.10;99.90
25410;DHT22;13339;50.840;4.346;2023-11-19T00:17:46;16.00;99.90
25410;DHT22;13339;50.840;4.346;2023-11-19T00:20:14;16.00;99.90
25410;DHT22;13339;50.840;4.346;2023-11-19T00:22:42;16.00;99.90
25410;DHT22;13339;50.840;4.346;2023-11-19T00:25:08;16.10;99.90
25410;DHT22;13339;50.840;4.346;2023-11-19T00:27:34;16.10;99.90
25410;DHT22;13339;50.840;4.346;2023-11-19T00:30:00;16.10;99.90
25410;DHT22;13339;50.840;4.346;2023-11-19T00:32:25;16.10;99.90
25410;DHT22;13339;50.840;4.346;2023-11-19T00:34:51;16.10;99.90
25410;DHT22;13339;50.840;4.346;2023-11-19T00:37:17;16.10;99.90
25410;DHT22;13339;50.840;4.346;2023-11-19T00:39:43;16.10;99.90
25410;DHT22;13339;50.840;4.346;2023-11-19T00:42:12;16.10;99.90
25410;DHT22;13339;50.840;4.346;2023-11-19T00:44:37;16.00;99.90
25410;DHT22;13339;50.840;4.346;2023-11-19T00:47:03;16.10;99.90
25410;DHT22;13339;50.840;4.346;2023-11-19T00:49:29;16.00;99.90
25410;DHT22;13339;50.840;4.346;2023-11-19T00:51:54;15.90;99.90
25410;DHT22;13339;50.840;4.346;2023-11-19T00:54:20;15.80;99.90
25410;DHT22;13339;50.840;4.346;2023-11-19T00:56:46;15.80;99.90
25410;DHT22;13339;50.840;4.346;2023-11-19T00:59:11;15.80;99.90
25410;DHT22;13339;50.840;4.346;2023-11-19T01:01:37;15.90;99.90
25410;DHT22;13339;50.840;4.346;2023-11-19T01:04:03;15.90;99.90
25410;DHT22;13339;50.840;4.346;2023-11-19T01:06:32;16.00;99.90
25410;DHT22;13339;50.840;4.346;2023-11-19T01:08:57;16.00;99.90
25410;DHT22;13339;50.840;4.346;2023-11-19T01:11:24;16.10;99.90
25410;DHT22;13339;50.840;4.346;2023-11-19T01:13:50;16.10;99.90
25410;DHT22;13339;50.840;4.346;2023-11-19T01:16:17;16.10;99.90
25410;DHT22;13339;50.840;4.346;2023-11-19T01:18:42;16.10;99.90
25410;DHT22;13339;50.840;4.346;2023-11-19T01:21:08;16.00;99.90
25410;DHT22;13339;50.840;4.346;2023-11-19T01:23:34;16.10;99.90
25410;DHT22;13339;50.840;4.346;2023-11-19T01:26:00;16.10;99.90
25410;DHT22;13339;50.840;4.346;2023-11-19T01:28:26;16.10;99.90
25410;DHT22;13339;50.840;4.346;2023-11-19T01:30:51;16.10;99.90
25410;DHT22;13339;50.840;4.346;2023-11-19T01:33:17;16.10;99.90
25410;DHT22;13339;50.840;4.346;2023-11-19T01:35:43;16.20;99.90
25410;DHT22;13339;50.840;4.346;2023-11-19T01:38:08;16.20;99.90
25410;DHT22;13339;50.840;4.346;2023-11-19T01:40:34;16.20;99.90
25410;DHT22;13339;50.840;4.346;2023-11-19T01:43:02;16.10;99.90
25410;DHT22;13339;50.840;4.346;2023-11-19T01:45:29;16.10;99.90
25410;DHT22;13339;50.840;4.346;2023-11-19T01:47:56;16.00;99.90
25410;DHT22;13339;50.840;4.346;2023-11-19T01:50:24;16.00;99.90
25410;DHT22;13339;50.840;4.346;2023-11-19T01:52:55;16.00;99.90
25410;DHT22;13339;50.840;4.346;2023-11-19T01:55:24;16.00;99.90
25410;DHT22;13339;50.840;4.346;2023-11-19T01:57:52;16.00;99.90
25410;DHT22;13339;50.840;4.346;2023-11-19T02:00:19;15.90;99.90
25410;DHT22;13339;50.840;4.346;2023-11-19T02:02:46;15.90;99.90
25410;DHT22;13339;50.840;4.346;2023-11-19T02:05:13;15.90;99.90
25410;DHT22;13339;50.840;4.346;2023-11-19T02:07:39;15.90;99.90
25410;DHT22;13339;50.840;4.346;2023-11-19T02:10:06;15.90;99.90
25410;DHT22;13339;50.840;4.346;2023-11-19T02:12:38;15.90;99.90
25410;DHT22;13339;50.840;4.346;2023-11-19T02:15:04;15.90;99.90
25410;DHT22;13339;50.840;4.346;2023-11-19T02:17:30;15.80;99.90
25410;DHT22;13339;50.840;4.346;2023-11-19T02:20:23;15.90;99.90
25410;DHT22;13339;50.840;4.346;2023-11-19T02:22:50;15.80;99.90
25410;DHT22;13339;50.840;4.346;2023-11-19T02:25:28;15.90;99.90
25410;DHT22;13339;50.840;4.346;2023-11-19T02:27:58;15.90;99.90
25410;DHT22;13339;50.840;4.346;2023-11-19T02:30:25;15.90;99.90
25410;DHT22;13339;50.840;4.346;2023-11-19T02:32:55;15.80;99.90
25410;DHT22;13339;50.840;4.346;2023-11-19T02:35:23;15.80;99.90
25410;DHT22;13339;50.840;4.346;2023-11-19T02:37:49;15.70;99.90
25410;DHT22;13339;50.840;4.346;2023-11-19T02:40:14;15.70;99.90
25410;DHT22;13339;50.840;4.346;2023-11-19T02:42:40;15.80;99.90
25410;DHT22;13339;50.840;4.346;2023-11-19T02:45:06;15.60;99.90
25410;DHT22;13339;50.840;4.346;2023-11-19T02:47:33;15.60;99.90
25410;DHT22;13339;50.840;4.346;2023-11-19T02:49:59;15.60;99.90
25410;DHT22;13339;50.840;4.346;2023-11-19T02:52:25;15.70;99.90
25410;DHT22;13339;50.840;4.346;2023-11-19T02:54:51;15.80;99.90
25410;DHT22;13339;50.840;4.346;2023-11-19T02:57:16;15.70;99.90
25410;DHT22;13339;50.840;4.346;2023-11-19T02:59:45;15.70;99.90
25410;DHT22;13339;50.840;4.346;2023-11-19T03:02:10;15.70;99.90
25410;DHT22;13339;50.840;4.346;2023-11-19T03:04:37;15.70;99.90
25410;DHT22;13339;50.840;4.346;2023-11-19T03:07:08;15.70;99.90
25410;DHT22;13339;50.840;4.346;2023-11-19T03:09:33;15.60;99.90
25410;DHT22;13339;50.840;4.346;2023-11-19T03:12:01;15.50;99.90
25410;DHT22;13339;50.840;4.346;2023-11-19T03:14:26;15.50;99.90
25410;DHT22;13339;50.840;4.346;2023-11-19T03:16:52;15.40;99.90
25410;DHT22;13339;50.840;4.346;2023-11-19T03:19:17;15.40;99.90
25410;DHT22;13339;50.840;4.346;2023-11-19T03:21:43;15.30;99.90
25410;DHT22;13339;50.840;4.346;2023-11-19T03:24:10;15.20;99.90
25410;DHT22;13339;50.840;4.346;2023-11-19T03:26:35;15.20;99.90
25410;DHT22;13339;50.840;4.346;2023-11-19T03:29:02;15.20;99.90
25410;DHT22;13339;50.840;4.346;2023-11-19T03:31:28;15.20;99.90
25410;DHT22;13339;50.840;4.346;2023-11-19T03:33:54;15.20;99.90
25410;DHT22;13339;50.840;4.346;2023-11-19T03:36:19;15.10;99.90
25410;DHT22;13339;50.840;4.346;2023-11-19T03:38:45;15.20;99.90
25410;DHT22;13339;50.840;4.346;2023-11-19T03:41:12;15.10;99.90
25410;DHT22;13339;50.840;4.346;2023-11-19T03:43:39;15.10;99.90
25410;DHT22;13339;50.840;4.346;2023-11-19T03:46:05;15.10;99.90
25410;DHT22;13339;50.840;4.346;2023-11-19T03:48:40;15.20;99.90
25410;DHT22;13339;50.840;4.346;2023-11-19T03:51:05;15.20;99.90
25410;DHT22;13339;50.840;4.346;2023-11-19T03:53:31;15.10;99.90
25410;DHT22;13339;50.840;4.346;2023-11-19T03:55:57;15.00;99.90
25410;DHT22;13339;50.840;4.346;2023-11-19T03:58:22;14.90;99.90
25410;DHT22;13339;50.840;4.346;2023-11-19T04:00:48;14.90;99.90
25410;DHT22;13339;50.840;4.346;2023-11-19T04:03:13;15.00;99.90
25410;DHT22;13339;50.840;4.346;2023-11-19T04:05:39;14.90;99.90
25410;DHT22;13339;50.840;4.346;2023-11-19T04:08:04;14.90;99.90
25410;DHT22;13339;50.840;4.346;2023-11-19T04:10:30;15.00;99.90
25410;DHT22;13339;50.840;4.346;2023-11-19T04:12:56;14.90;99.90
25410;DHT22;13339;50.840;4.346;2023-11-19T04:15:21;15.00;99.90
25410;DHT22;13339;50.840;4.346;2023-11-19T04:17:47;15.00;99.90
25410;DHT22;13339;50.840;4.346;2023-11-19T04:20:13;15.00;99.90
25410;DHT22;13339;50.840;4.346;2023-11-19T04:22:39;15.00;99.90
25410;DHT22;13339;50.840;4.346;2023-11-19T04:25:06;15.00;99.90
25410;DHT22;13339;50.840;4.346;2023-11-19T04:27:32;15.00;99.90
25410;DHT22;13339;50.840;4.346;2023-11-19T04:29:57;15.00;99.90
25410;DHT22;13339;50.840;4.346;2023-11-19T04:32:23;15.00;99.90
25410;DHT22;13339;50.840;4.346;2023-11-19T04:34:50;14.90;99.90
25410;DHT22;13339;50.840;4.346;2023-11-19T04:37:16;14.90;99.90
25410;DHT22;13339;50.840;4.346;2023-11-19T04:39:44;14.90;99.90
25410;DHT22;13339;50.840;4.346;2023-11-19T04:42:10;14.80;99.90
25410;DHT22;13339;50.840;4.346;2023-11-19T04:44:35;14.80;99.90
25410;DHT22;13339;50.840;4.346;2023-11-19T04:47:01;14.80;99.90
25410;DHT22;13339;50.840;4.346;2023-11-19T04:49:27;14.80;99.90
25410;DHT22;13339;50.840;4.346;2023-11-19T04:51:52;14.90;99.90
25410;DHT22;13339;50.840;4.346;2023-11-19T04:54:19;14.90;99.90
25410;DHT22;13339;50.840;4.346;2023-11-19T04:56:47;14.80;99.90
25410;DHT22;13339;50.840;4.346;2023-11-19T04:59:14;14.70;99.90
25410;DHT22;13339;50.840;4.346;2023-11-19T05:01:40;14.80;99.90
25410;DHT22;13339;50.840;4.346;2023-11-19T05:04:07;14.80;99.90
25410;DHT22;13339;50.840;4.346;2023-11-19T05:06:32;14.90;99.90
25410;DHT22;13339;50.840;4.346;2023-11-19T05:08:59;14.90;99.90
25410;DHT22;13339;50.840;4.346;2023-11-19T05:11:35;14.90;99.90
25410;DHT22;13339;50.840;4.346;2023-11-19T05:14:02;14.90;99.90
25410;DHT22;13339;50.840;4.346;2023-11-19T05:16:29;14.90;99.90
25410;DHT22;13339;50.840;4.346;2023-11-19T05:18:55;14.80;99.90
25410;DHT22;13339;50.840;4.346;2023-11-19T05:21:20;14.80;99.90
25410;DHT22;13339;50.840;4.346;2023-11-19T05:23:46;14.80;99.90
25410;DHT22;13339;50.840;4.346;2023-11-19T05:26:22;14.70;99.90
25410;DHT22;13339;50.840;4.346;2023-11-19T05:28:49;14.70;99.90
25410;DHT22;13339;50.840;4.346;2023-11-19T05:31:16;14.60;99.90
25410;DHT22;13339;50.840;4.346;2023-11-19T05:33:42;14.70;99.90
25410;DHT22;13339;50.840;4.346;2023-11-19T05:36:08;14.60;99.90
25410;DHT22;13339;50.840;4.346;2023-11-19T05:38:35;14.70;99.90
25410;DHT22;13339;50.840;4.346;2023-11-19T05:41:01;14.70;99.90
25410;DHT22;13339;50.840;4.346;2023-11-19T05:43:26;14.70;99.90
25410;DHT22;13339;50.840;4.346;2023-11-19T05:45:52;14.60;99.90
25410;DHT22;13339;50.840;4.346;2023-11-19T05:48:17;14.60;99.90
25410;DHT22;13339;50.840;4.346;2023-11-19T05:50:43;14.60;99.90
25410;DHT22;13339;50.840;4.346;2023-11-19T05:53:09;14.60;99.90
25410;DHT22;13339;50.840;4.346;2023-11-19T05:55:36;14.70;99.90
25410;DHT22;13339;50.840;4.346;2023-11-19T05:58:10;14.70;99.90
25410;DHT22;13339;50.840;4.346;2023-11-19T06:00:38;14.60;99.90
25410;DHT22;13339;50.840;4.346;2023-11-19T06:03:04;14.60;99.90
25410;DHT22;13339;50.840;4.346;2023-11-19T06:05:30;14.60;99.90
25410;DHT22;13339;50.840;4.346;2023-11-19T06:07:55;14.60;99.90
25410;DHT22;13339;50.840;4.346;2023-11-19T06:10:23;14.70;99.90
25410;DHT22;13339;50.840;4.346;2023-11-19T06:12:54;14.60;99.90
25410;DHT22;13339;50.840;4.346;2023-11-19T06:15:22;14.60;99.90
25410;DHT22;13339;50.840;4.346;2023-11-19T06:17:47;14.50;99.90
25410;DHT22;13339;50.840;4.346;2023-11-19T06:20:14;14.40;99.90
25410;DHT22;13339;50.840;4.346;2023-11-19T06:22:40;14.40;99.90
25410;DHT22;13339;50.840;4.346;2023-11-19T06:25:08;14.40;99.90
25410;DHT22;13339;50.840;4.346;2023-11-19T06:27:33;14.40;99.90
25410;DHT22;13339;50.840;4.346;2023-11-19T06:30:00;14.30;99.90
25410;DHT22;13339;50.840;4.346;2023-11-19T06:32:26;14.30;99.90
25410;DHT22;13339;50.840;4.346;2023-11-19T06:34:51;14.30;99.90
25410;DHT22;13339;50.840;4.346;2023-11-19T06:37:17;14.30;99.90
25410;DHT22;13339;50.840;4.346;2023-11-19T06:39:42;14.30;99.90
25410;DHT22;13339;50.840;4.346;2023-11-19T06:42:08;14.30;99.90
25410;DHT22;13339;50.840;4.346;2023-11-19T06:44:34;14.40;99.90
25410;DHT22;13339;50.840;4.346;2023-11-19T06:46:59;14.40;99.90
25410;DHT22;13339;50.840;4.346;2023-11-19T06:49:25;14.40;99.90
25410;DHT22;13339;50.840;4.346;2023-11-19T06:51:51;14.30;99.90
25410;DHT22;13339;50.840;4.346;2023-11-19T06:54:16;14.20;99.90
25410;DHT22;13339;50.840;4.346;2023-11-19T06:56:42;14.20;99.90
25410;DHT22;13339;50.840;4.346;2023-11-19T06:59:08;14.20;99.90
25410;DHT22;13339;50.840;4.346;2023-11-19T07:01:35;14.10;99.90
25410;DHT22;13339;50.840;4.346;2023-11-19T07:04:01;14.20;99.90
25410;DHT22;13339;50.840;4.346;2023-11-19T07:06:33;14.20;99.90
25410;DHT22;13339;50.840;4.346;2023-11-19T07:08:59;14.10;99.90
25410;DHT22;13339;50.840;4.346;2023-11-19T07:11:24;14.10;99.90
25410;DHT22;13339;50.840;4.346;2023-11-19T07:13:50;14.10;99.90
25410;DHT22;13339;50.840;4.346;2023-11-19T07:16:15;14.10;99.90
25410;DHT22;13339;50.840;4.346;2023-11-19T07:18:41;14.00;99.90
25410;DHT22;13339;50.840;4.346;2023-11-19T07:21:09;14.00;99.90
25410;DHT22;13339;50.840;4.346;2023-11-19T07:23:36;14.10;99.90
25410;DHT22;13339;50.840;4.346;2023-11-19T07:26:04;14.10;99.90
25410;DHT22;13339;50.840;4.346;2023-11-19T07:28:29;14.20;99.90
25410;DHT22;13339;50.840;4.346;2023-11-19T07:30:55;14.20;99.90
25410;DHT22;13339;50.840;4.346;2023-11-19T07:33:21;14.30;99.90
25410;DHT22;13339;50.840;4.346;2023-11-19T07:35:47;14.10;99.90
25410;DHT22;13339;50.840;4.346;2023-11-19T07:38:14;14.10;99.90
25410;DHT22;13339;50.840;4.346;2023-11-19T07:40:39;14.00;99.90
25410;DHT22;13339;50.840;4.346;2023-11-19T07:43:05;13.90;99.90
25410;DHT22;13339;50.840;4.346;2023-11-19T07:45:32;13.90;99.90
25410;DHT22;13339;50.840;4.346;2023-11-19T07:47:58;13.90;99.90
25410;DHT22;13339;50.840;4.346;2023-11-19T07:50:23;13.90;99.90
25410;DHT22;13339;50.840;4.346;2023-11-19T07:52:50;14.00;99.90
25410;DHT22;13339;50.840;4.346;2023-11-19T07:55:16;14.00;99.90
25410;DHT22;13339;50.840;4.346;2023-11-19T07:57:41;14.00;99.90
25410;DHT22;13339;50.840;4.346;2023-11-19T08:00:07;14.00;99.90
25410;DHT22;13339;50.840;4.346;2023-11-19T08:02:37;14.00;99.90
25410;DHT22;13339;50.840;4.346;2023-11-19T08:05:04;13.90;99.90
25410;DHT22;13339;50.840;4.346;2023-11-19T08:07:29;13.90;99.90
25410;DHT22;13339;50.840;4.346;2023-11-19T08:09:55;13.90;99.90
25410;DHT22;13339;50.840;4.346;2023-11-19T08:12:20;14.00;99.90
25410;DHT22;13339;50.840;4.346;2023-11-19T08:14:46;14.00;99.90
25410;DHT22;13339;50.840;4.346;2023-11-19T08:17:12;14.10;99.90
25410;DHT22;13339;50.840;4.346;2023-11-19T08:19:37;14.10;99.90
25410;DHT22;13339;50.840;4.346;2023-11-19T08:22:03;14.20;99.90
25410;DHT22;13339;50.840;4.346;2023-11-19T08:24:28;14.20;99.90
25410;DHT22;13339;50.840;4.346;2023-11-19T08:26:54;14.20;99.90
25410;DHT22;13339;50.840;4.346;2023-11-19T08:29:20;14.20;99.90
25410;DHT22;13339;50.840;4.346;2023-11-19T08:31:46;14.10;99.90
25410;DHT22;13339;50.840;4.346;2023-11-19T08:34:12;14.10;99.90
25410;DHT22;13339;50.840;4.346;2023-11-19T08:36:37;14.20;99.90
25410;DHT22;13339;50.840;4.346;2023-11-19T08:39:03;14.30;99.90
25410;DHT22;13339;50.840;4.346;2023-11-19T08:41:29;14.40;99.90
25410;DHT22;13339;50.840;4.346;2023-11-19T08:43:54;14.50;99.90
25410;DHT22;13339;50.840;4.346;2023-11-19T08:46:20;14.50;99.90
25410;DHT22;13339;50.840;4.346;2023-11-19T08:48:45;14.50;99.90
25410;DHT22;13339;50.840;4.346;2023-11-19T08:51:14;14.50;99.90
25410;DHT22;13339;50.840;4.346;2023-11-19T08:53:39;14.50;99.90
25410;DHT22;13339;50.840;4.346;2023-11-19T08:56:05;14.60;99.90
25410;DHT22;13339;50.840;4.346;2023-11-19T08:58:31;14.60;99.90
25410;DHT22;13339;50.840;4.346;2023-11-19T09:00:57;14.60;99.90
25410;DHT22;13339;50.840;4.346;2023-11-19T09:03:23;14.60;99.90
25410;DHT22;13339;50.840;4.346;2023-11-19T09:05:51;14.70;99.90
25410;DHT22;13339;50.840;4.346;2023-11-19T09:08:17;14.70;99.90
25410;DHT22;13339;50.840;4.346;2023-11-19T09:10:43;14.70;99.90
25410;DHT22;13339;50.840;4.346;2023-11-19T09:13:08;14.80;99.90
25410;DHT22;13339;50.840;4.346;2023-11-19T09:15:34;14.70;99.90
25410;DHT22;13339;50.840;4.346;2023-11-19T09:17:59;14.80;99.90
25410;DHT22;13339;50.840;4.346;2023-11-19T09:20:25;15.00;99.90
25410;DHT22;13339;50.840;4.346;2023-11-19T09:22:51;14.90;99.90
25410;DHT22;13339;50.840;4.346;2023-11-19T09:25:16;14.90;99.90
25410;DHT22;13339;50.840;4.346;2023-11-19T09:27:45;14.90;99.90
25410;DHT22;13339;50.840;4.346;2023-11-19T09:30:11;14.80;99.90
25410;DHT22;13339;50.840;4.346;2023-11-19T09:32:38;14.80;99.90
25410;DHT22;13339;50.840;4.346;2023-11-19T09:35:04;14.80;99.90
25410;DHT22;13339;50.840;4.346;2023-11-19T09:37:29;14.80;99.90
25410;DHT22;13339;50.840;4.346;2023-11-19T09:39:55;14.90;99.90
25410;DHT22;13339;50.840;4.346;2023-11-19T09:42:21;14.80;99.90
25410;DHT22;13339;50.840;4.346;2023-11-19T09:44:49;14.90;99.90
25410;DHT22;13339;50.840;4.346;2023-11-19T09:47:14;14.90;99.90
25410;DHT22;13339;50.840;4.346;2023-11-19T09:49:42;14.90;99.90
25410;DHT22;13339;50.840;4.346;2023-11-19T09:52:08;15.00;99.90
25410;DHT22;13339;50.840;4.346;2023-11-19T09:54:34;15.10;99.90
25410;DHT22;13339;50.840;4.346;2023-11-19T09:57:01;15.20;99.90
25410;DHT22;13339;50.840;4.346;2023-11-19T09:59:29;15.20;99.90
25410;DHT22;13339;50.840;4.346;2023-11-19T10:01:56;15.10;99.90
25410;DHT22;13339;50.840;4.346;2023-11-19T10:04:22;15.10;99.90
25410;DHT22;13339;50.840;4.346;2023-11-19T10:06:50;15.10;99.90
25410;DHT22;13339;50.840;4.346;2023-11-19T10:09:16;15.10;99.90
25410;DHT22;13339;50.840;4.346;2023-11-19T10:11:41;15.00;99.90
25410;DHT22;13339;50.840;4.346;2023-11-19T10:14:07;15.10;99.90
25410;DHT22;13339;50.840;4.346;2023-11-19T10:16:34;15.20;99.90
25410;DHT22;13339;50.840;4.346;2023-11-19T10:19:00;15.30;99.90
25410;DHT22;13339;50.840;4.346;2023-11-19T10:21:26;15.30;99.90
25410;DHT22;13339;50.840;4.346;2023-11-19T10:23:55;15.30;99.90
25410;DHT22;13339;50.840;4.346;2023-11-19T10:26:23;15.40;99.90
25410;DHT22;13339;50.840;4.346;2023-11-19T10:28:49;15.40;99.90
25410;DHT22;13339;50.840;4.346;2023-11-19T10:31:18;15.50;99.90
25410;DHT22;13339;50.840;4.346;2023-11-19T10:33:45;15.50;99.90
25410;DHT22;13339;50.840;4.346;2023-11-19T10:36:14;15.60;99.90
25410;DHT22;13339;50.840;4.346;2023-11-19T10:38:40;15.70;99.90
25410;DHT22;13339;50.840;4.346;2023-11-19T10:41:06;15.70;99.90
25410;DHT22;13339;50.840;4.346;2023-11-19T10:43:43;15.80;99.90
25410;DHT22;13339;50.840;4.346;2023-11-19T10:46:14;15.60;99.90
25410;DHT22;13339;50.840;4.346;2023-11-19T10:48:40;15.60;99.90
25410;DHT22;13339;50.840;4.346;2023-11-19T10:51:07;15.60;99.90
25410;DHT22;13339;50.840;4.346;2023-11-19T10:53:41;15.60;99.90
25410;DHT22;13339;50.840;4.346;2023-11-19T10:56:11;15.60;99.90
25410;DHT22;13339;50.840;4.346;2023-11-19T10:58:37;15.60;99.90
25410;DHT22;13339;50.840;4.346;2023-11-19T11:01:13;15.60;99.90
25410;DHT22;13339;50.840;4.346;2023-11-19T11:03:41;15.70;99.90
25410;DHT22;13339;50.840;4.346;2023-11-19T11:06:09;15.60;99.90
25410;DHT22;13339;50.840;4.346;2023-11-19T11:08:37;15.80;99.90
25410;DHT22;13339;50.840;4.346;2023-11-19T11:11:05;15.80;99.90
25410;DHT22;13339;50.840;4.346;2023-11-19T11:13:31;15.80;99.90
25410;DHT22;13339;50.840;4.346;2023-11-19T11:15:59;15.90;99.90
25410;DHT22;13339;50.840;4.346;2023-11-19T11:18:26;15.80;99.90
25410;DHT22;13339;50.840;4.346;2023-11-19T11:23:44;15.60;99.90
25410;DHT22;13339;50.840;4.346;2023-11-19T11:32:45;15.50;99.90
25410;DHT22;13339;50.840;4.346;2023-11-19T11:35:30;15.40;99.90
25410;DHT22;13339;50.840;4.346;2023-11-19T11:38:06;15.40;99.90
25410;DHT22;13339;50.840;4.346;2023-11-19T11:40:32;15.50;99.90
25410;DHT22;13339;50.840;4.346;2023-11-19T11:42:58;15.60;99.90
25410;DHT22;13339;50.840;4.346;2023-11-19T11:45:39;15.50;99.90
25410;DHT22;13339;50.840;4.346;2023-11-19T11:48:19;15.60;99.90
25410;DHT22;13339;50.840;4.346;2023-11-19T11:50:53;15.60;99.90
25410;DHT22;13339;50.840;4.346;2023-11-19T11:53:21;15.70;99.90
25410;DHT22;13339;50.840;4.346;2023-11-19T11:58:17;15.80;99.90
25410;DHT22;13339;50.840;4.346;2023-11-19T12:00:43;15.90;99.90
25410;DHT22;13339;50.840;4.346;2023-11-19T12:03:09;15.90;99.90
25410;DHT22;13339;50.840;4.346;2023-11-19T12:05:44;16.00;99.90
25410;DHT22;13339;50.840;4.346;2023-11-19T12:08:11;16.10;99.90
25410;DHT22;13339;50.840;4.346;2023-11-19T12:10:48;16.10;99.90
25410;DHT22;13339;50.840;4.346;2023-11-19T12:13:15;16.10;99.90
25410;DHT22;13339;50.840;4.346;2023-11-19T12:18:30;16.00;99.90
25410;DHT22;13339;50.840;4.346;2023-11-19T12:20:56;15.80;99.90
25410;DHT22;13339;50.840;4.346;2023-11-19T12:23:23;15.80;99.90
25410;DHT22;13339;50.840;4.346;2023-11-19T12:25:49;15.80;99.90
25410;DHT22;13339;50.840;4.346;2023-11-19T12:28:15;15.80;99.90
25410;DHT22;13339;50.840;4.346;2023-11-19T12:30:45;15.80;99.90
25410;DHT22;13339;50.840;4.346;2023-11-19T12:33:14;15.60;99.90
25410;DHT22;13339;50.840;4.346;2023-11-19T12:35:44;15.60;99.90
25410;DHT22;13339;50.840;4.346;2023-11-19T12:38:23;15.50;99.90
25410;DHT22;13339;50.840;4.346;2023-11-19T12:41:05;15.40;99.90
25410;DHT22;13339;50.840;4.346;2023-11-19T12:43:32;15.40;99.90
25410;DHT22;13339;50.840;4.346;2023-11-19T12:45:59;15.50;99.90
25410;DHT22;13339;50.840;4.346;2023-11-19T12:48:25;15.40;99.90
25410;DHT22;13339;50.840;4.346;2023-11-19T12:50:51;15.40;99.90
25410;DHT22;13339;50.840;4.346;2023-11-19T12:53:18;15.30;99.90
25410;DHT22;13339;50.840;4.346;2023-11-19T12:55:44;15.30;99.90
25410;DHT22;13339;50.840;4.346;2023-11-19T12:58:10;15.30;99.90
25410;DHT22;13339;50.840;4.346;2023-11-19T13:00:36;15.40;99.90
25410;DHT22;13339;50.840;4.346;2023-11-19T13:03:01;15.40;99.90
25410;DHT22;13339;50.840;4.346;2023-11-19T13:05:30;15.50;99.90
25410;DHT22;13339;50.840;4.346;2023-11-19T13:08:07;15.60;99.90
25410;DHT22;13339;50.840;4.346;2023-11-19T13:10:34;15.50;99.90
25410;DHT22;13339;50.840;4.346;2023-11-19T13:13:15;15.50;99.90
25410;DHT22;13339;50.840;4.346;2023-11-19T13:15:40;15.50;99.90
25410;DHT22;13339;50.840;4.346;2023-11-19T13:18:06;15.50;99.90
25410;DHT22;13339;50.840;4.346;2023-11-19T13:20:32;15.50;99.90
25410;DHT22;13339;50.840;4.346;2023-11-19T13:23:03;15.60;99.90
25410;DHT22;13339;50.840;4.346;2023-11-19T13:25:30;15.60;99.90
25410;DHT22;13339;50.840;4.346;2023-11-19T13:27:57;15.70;99.90
25410;DHT22;13339;50.840;4.346;2023-11-19T13:30:24;15.70;99.90
25410;DHT22;13339;50.840;4.346;2023-11-19T13:32:51;15.70;99.90
25410;DHT22;13339;50.840;4.346;2023-11-19T13:35:17;15.60;99.90
25410;DHT22;13339;50.840;4.346;2023-11-19T13:37:44;15.60;99.90
25410;DHT22;13339;50.840;4.346;2023-11-19T13:40:11;15.50;99.90
25410;DHT22;13339;50.840;4.346;2023-11-19T13:42:39;15.50;99.90
25410;DHT22;13339;50.840;4.346;2023-11-19T13:45:08;15.60;99.90
25410;DHT22;13339;50.840;4.346;2023-11-19T13:47:40;15.60;99.90
25410;DHT22;13339;50.840;4.346;2023-11-19T13:50:10;15.60;99.90
25410;DHT22;13339;50.840;4.346;2023-11-19T13:52:37;15.60;99.90
25410;DHT22;13339;50.840;4.346;2023-11-19T13:55:05;15.40;99.90
25410;DHT22;13339;50.840;4.346;2023-11-19T13:57:32;15.40;99.90
25410;DHT22;13339;50.840;4.346;2023-11-19T13:59:57;15.40;99.90
25410;DHT22;13339;50.840;4.346;2023-11-19T14:02:23;15.30;99.90
25410;DHT22;13339;50.840;4.346;2023-11-19T14:04:48;15.30;99.90
25410;DHT22;13339;50.840;4.346;2023-11-19T14:07:14;15.30;99.90
25410;DHT22;13339;50.840;4.346;2023-11-19T14:09:42;15.30;99.90
25410;DHT22;13339;50.840;4.346;2023-11-19T14:12:08;15.40;99.90
25410;DHT22;13339;50.840;4.346;2023-11-19T14:14:35;15.40;99.90
25410;DHT22;13339;50.840;4.346;2023-11-19T14:17:01;15.30;99.90
25410;DHT22;13339;50.840;4.346;2023-11-19T14:19:28;15.30;99.90
25410;DHT22;13339;50.840;4.346;2023-11-19T14:21:54;15.30;99.90
25410;DHT22;13339;50.840;4.346;2023-11-19T14:24:19;15.50;99.90
25410;DHT22;13339;50.840;4.346;2023-11-19T14:26:46;15.40;99.90
25410;DHT22;13339;50.840;4.346;2023-11-19T14:29:12;15.30;99.90
25410;DHT22;13339;50.840;4.346;2023-11-19T14:31:38;15.30;99.90
25410;DHT22;13339;50.840;4.346;2023-11-19T14:34:05;15.20;99.90
25410;DHT22;13339;50.840;4.346;2023-11-19T14:36:31;15.10;99.90
25410;DHT22;13339;50.840;4.346;2023-11-19T14:38:56;15.00;99.90
25410;DHT22;13339;50.840;4.346;2023-11-19T14:41:24;15.00;99.90
25410;DHT22;13339;50.840;4.346;2023-11-19T14:43:50;14.90;99.90
25410;DHT22;13339;50.840;4.346;2023-11-19T14:46:15;14.90;99.90
25410;DHT22;13339;50.840;4.346;2023-11-19T14:48:41;15.00;99.90
25410;DHT22;13339;50.840;4.346;2023-11-19T14:51:07;15.00;99.90
25410;DHT22;13339;50.840;4.346;2023-11-19T14:53:32;15.10;99.90
25410;DHT22;13339;50.840;4.346;2023-11-19T14:55:58;15.00;99.90
25410;DHT22;13339;50.840;4.346;2023-11-19T14:58:24;14.90;99.90
25410;DHT22;13339;50.840;4.346;2023-11-19T15:00:51;14.90;99.90
25410;DHT22;13339;50.840;4.346;2023-11-19T15:03:17;15.00;99.90
25410;DHT22;13339;50.840;4.346;2023-11-19T15:05:45;15.10;99.90
25410;DHT22;13339;50.840;4.346;2023-11-19T15:08:11;15.10;99.90
25410;DHT22;13339;50.840;4.346;2023-11-19T15:10:37;15.10;99.90
25410;DHT22;13339;50.840;4.346;2023-11-19T15:13:03;15.20;99.90
25410;DHT22;13339;50.840;4.346;2023-11-19T15:15:32;15.30;99.90
25410;DHT22;13339;50.840;4.346;2023-11-19T15:17:58;15.30;99.90
25410;DHT22;13339;50.840;4.346;2023-11-19T15:20:23;15.40;99.90
25410;DHT22;13339;50.840;4.346;2023-11-19T15:22:49;15.40;99.90
25410;DHT22;13339;50.840;4.346;2023-11-19T15:25:15;15.40;99.90
25410;DHT22;13339;50.840;4.346;2023-11-19T15:27:40;15.40;99.90
25410;DHT22;13339;50.840;4.346;2023-11-19T15:30:06;15.40;99.90
25410;DHT22;13339;50.840;4.346;2023-11-19T15:32:35;15.40;99.90
25410;DHT22;13339;50.840;4.346;2023-11-19T15:35:01;15.50;99.90
25410;DHT22;13339;50.840;4.346;2023-11-19T15:37:26;15.50;99.90
25410;DHT22;13339;50.840;4.346;2023-11-19T15:39:52;15.50;99.90
25410;DHT22;13339;50.840;4.346;2023-11-19T15:42:17;15.50;99.90